sensor_id;sensor_type;location;lat;lon;timestamp;pressure;altitude;pressure_sealevel;temperature;humidity
29839;BME280;18669;53.356;-1.464;2022-07-04T00:00:30;100987.34;;;14.52;100.00
29839;BME280;18669;53.356;-1.464;2022-07-04T00:02:56;100953.75;;;14.54;100.00
29839;BME280;18669;53.356;-1.464;2022-07-04T00:05:22;100979.47;;;14.79;100.00
29839;BME280;18669;53.356;-1.464;2022-07-04T00:07:49;100981.84;;;14.87;100.00
29839;BME280;18669;53.356;-1.464;2022-07-04T00:10:18;100976.25;;;14.96;100.00
29839;BME280;18669;53.356;-1.464;2022-07-04T00:12:55;100980.03;;;14.89;100.00
29839;BME280;18669;53.356;-1.464;2022-07-04T00:15:23;100980.59;;;14.99;100.00
29839;BME280;18669;53.356;-1.464;2022-07-04T00:17:53;100973.47;;;15.01;100.00
29839;BME280;18669;53.356;-1.464;2022-07-04T00:20:19;100970.13;;;14.94;100.00
29839;BME280;18669;53.356;-1.464;2022-07-04T00:22:46;100963.19;;;14.91;100.00
29839;BME280;18669;53.356;-1.464;2022-07-04T00:25:15;100964.81;;;14.96;100.00
29839;BME280;18669;53.356;-1.464;2022-07-04T00:27:44;100962.16;;;14.96;100.00
29839;BME280;18669;53.356;-1.464;2022-07-04T00:30:11;100957.72;;;14.96;100.00
29839;BME280;18669;53.356;-1.464;2022-07-04T00:32:37;100947.22;;;14.93;100.00
29839;BME280;18669;53.356;-1.464;2022-07-04T00:35:13;100947.56;;;15.09;100.00
29839;BME280;18669;53.356;-1.464;2022-07-04T00:37:56;100935.13;;;15.11;100.00
29839;BME280;18669;53.356;-1.464;2022-07-04T00:40:24;100920.75;;;15.18;100.00
29839;BME280;18669;53.356;-1.464;2022-07-04T00:42:57;100926.38;;;15.34;100.00
29839;BME280;18669;53.356;-1.464;2022-07-04T00:45:25;100925.34;;;15.39;100.00
29839;BME280;18669;53.356;-1.464;2022-07-04T00:47:55;100911.38;;;15.33;100.00
29839;BME280;18669;53.356;-1.464;2022-07-04T00:50:35;100922.28;;;15.49;100.00
29839;BME280;18669;53.356;-1.464;2022-07-04T00:53:02;100908.31;;;15.44;100.00
29839;BME280;18669;53.356;-1.464;2022-07-04T00:55:28;100908.00;;;15.54;100.00
29839;BME280;18669;53.356;-1.464;2022-07-04T00:57:58;100883.94;;;15.58;100.00
29839;BME280;18669;53.356;-1.464;2022-07-04T01:00:25;100887.78;;;15.51;100.00
29839;BME280;18669;53.356;-1.464;2022-07-04T01:02:54;100877.72;;;15.59;100.00
29839;BME280;18669;53.356;-1.464;2022-07-04T01:05:21;100879.41;;;15.62;100.00
29839;BME280;18669;53.356;-1.464;2022-07-04T01:07:49;100870.22;;;15.71;100.00
29839;BME280;18669;53.356;-1.464;2022-07-04T01:10:16;100883.13;;;15.56;100.00
29839;BME280;18669;53.356;-1.464;2022-07-04T01:12:42;100870.59;;;15.38;100.00
29839;BME280;18669;53.356;-1.464;2022-07-04T01:15:10;100877.28;;;15.48;100.00
29839;BME280;18669;53.356;-1.464;2022-07-04T01:17:39;100858.31;;;15.35;100.00
29839;BME280;18669;53.356;-1.464;2022-07-04T01:20:11;100867.00;;;15.62;100.00
29839;BME280;18669;53.356;-1.464;2022-07-04T01:22:37;100870.59;;;15.38;100.00
29839;BME280;18669;53.356;-1.464;2022-07-04T01:25:11;100878.03;;;15.51;100.00
29839;BME280;18669;53.356;-1.464;2022-07-04T01:27:40;100879.78;;;15.27;100.00
29839;BME280;18669;53.356;-1.464;2022-07-04T01:30:13;100890.56;;;15.46;100.00
29839;BME280;18669;53.356;-1.464;2022-07-04T01:32:44;100896.06;;;15.42;100.00
29839;BME280;18669;53.356;-1.464;2022-07-04T01:35:10;100904.03;;;15.16;100.00
29839;BME280;18669;53.356;-1.464;2022-07-04T01:37:55;100906.66;;;15.42;100.00
29839;BME280;18669;53.356;-1.464;2022-07-04T01:40:21;100892.22;;;15.25;100.00
29839;BME280;18669;53.356;-1.464;2022-07-04T01:43:01;100908.59;;;15.62;100.00
29839;BME280;18669;53.356;-1.464;2022-07-04T01:45:28;100899.44;;;15.45;100.00
29839;BME280;18669;53.356;-1.464;2022-07-04T01:47:54;100917.91;;;15.48;100.00
29839;BME280;18669;53.356;-1.464;2022-07-04T01:50:30;100918.59;;;15.54;100.00
29839;BME280;18669;53.356;-1.464;2022-07-04T01:53:21;100920.09;;;15.85;100.00
29839;BME280;18669;53.356;-1.464;2022-07-04T01:55:53;100921.13;;;15.80;100.00
29839;BME280;18669;53.356;-1.464;2022-07-04T01:58:39;100922.66;;;15.64;100.00
29839;BME280;18669;53.356;-1.464;2022-07-04T02:07:55;100904.25;;;15.59;100.00
29839;BME280;18669;53.356;-1.464;2022-07-04T02:25:34;100875.66;;;15.68;100.00
29839;BME280;18669;53.356;-1.464;2022-07-04T02:28:01;100874.84;;;15.65;100.00
29839;BME280;18669;53.356;-1.464;2022-07-04T02:30:30;100844.53;;;15.49;100.00
29839;BME280;18669;53.356;-1.464;2022-07-04T02:32:56;100862.72;;;15.58;100.00
29839;BME280;18669;53.356;-1.464;2022-07-04T02:36:06;100868.56;;;15.92;100.00
29839;BME280;18669;53.356;-1.464;2022-07-04T02:42:58;100839.91;;;15.54;100.00
29839;BME280;18669;53.356;-1.464;2022-07-04T02:45:25;100857.84;;;15.71;100.00
29839;BME280;18669;53.356;-1.464;2022-07-04T02:47:51;100871.28;;;15.66;100.00
29839;BME280;18669;53.356;-1.464;2022-07-04T02:50:20;100858.88;;;15.67;100.00
29839;BME280;18669;53.356;-1.464;2022-07-04T02:52:47;100844.00;;;15.63;100.00
29839;BME280;18669;53.356;-1.464;2022-07-04T02:55:31;100849.28;;;15.88;100.00
29839;BME280;18669;53.356;-1.464;2022-07-04T02:58:32;100853.78;;;15.85;100.00
29839;BME280;18669;53.356;-1.464;2022-07-04T03:01:49;100869.63;;;15.64;100.00
29839;BME280;18669;53.356;-1.464;2022-07-04T03:04:15;100851.28;;;15.58;100.00
29839;BME280;18669;53.356;-1.464;2022-07-04T03:06:42;100860.88;;;15.60;100.00
29839;BME280;18669;53.356;-1.464;2022-07-04T03:09:09;100854.75;;;15.60;100.00
29839;BME280;18669;53.356;-1.464;2022-07-04T03:11:36;100856.69;;;15.55;100.00
29839;BME280;18669;53.356;-1.464;2022-07-04T03:14:02;100856.00;;;15.49;100.00
29839;BME280;18669;53.356;-1.464;2022-07-04T03:16:43;100853.41;;;15.72;100.00
29839;BME280;18669;53.356;-1.464;2022-07-04T03:19:10;100848.94;;;15.50;100.00
29839;BME280;18669;53.356;-1.464;2022-07-04T03:21:36;100842.22;;;15.40;100.00
29839;BME280;18669;53.356;-1.464;2022-07-04T03:24:03;100858.75;;;15.46;100.00
29839;BME280;18669;53.356;-1.464;2022-07-04T03:26:33;100855.78;;;15.56;100.00
29839;BME280;18669;53.356;-1.464;2022-07-04T03:32:42;100851.50;;;15.51;100.00
29839;BME280;18669;53.356;-1.464;2022-07-04T03:35:17;100834.31;;;15.14;100.00
29839;BME280;18669;53.356;-1.464;2022-07-04T03:37:44;100856.50;;;15.35;100.00
29839;BME280;18669;53.356;-1.464;2022-07-04T03:40:21;100865.09;;;15.42;100.00
29839;BME280;18669;53.356;-1.464;2022-07-04T03:43:21;100848.56;;;15.12;100.00
29839;BME280;18669;53.356;-1.464;2022-07-04T03:45:47;100829.50;;;15.00;100.00
29839;BME280;18669;53.356;-1.464;2022-07-04T03:48:13;100864.34;;;15.15;100.00
29839;BME280;18669;53.356;-1.464;2022-07-04T03:50:39;100852.81;;;15.16;100.00
29839;BME280;18669;53.356;-1.464;2022-07-04T03:53:12;100858.25;;;15.36;100.00
29839;BME280;18669;53.356;-1.464;2022-07-04T03:55:39;100855.50;;;15.14;100.00
29839;BME280;18669;53.356;-1.464;2022-07-04T03:58:05;100855.69;;;15.10;100.00
29839;BME280;18669;53.356;-1.464;2022-07-04T04:03:09;100864.44;;;15.12;100.00
29839;BME280;18669;53.356;-1.464;2022-07-04T04:05:57;100861.19;;;15.03;100.00
29839;BME280;18669;53.356;-1.464;2022-07-04T04:08:23;100858.13;;;14.90;100.00
29839;BME280;18669;53.356;-1.464;2022-07-04T04:11:22;100874.97;;;15.13;100.00
29839;BME280;18669;53.356;-1.464;2022-07-04T04:14:11;100849.50;;;14.84;100.00
29839;BME280;18669;53.356;-1.464;2022-07-04T04:20:34;100851.09;;;15.15;100.00
29839;BME280;18669;53.356;-1.464;2022-07-04T04:23:03;100864.69;;;15.04;100.00
29839;BME280;18669;53.356;-1.464;2022-07-04T04:25:29;100851.69;;;14.98;100.00
29839;BME280;18669;53.356;-1.464;2022-07-04T04:27:55;100863.13;;;15.00;100.00
29839;BME280;18669;53.356;-1.464;2022-07-04T04:30:23;100852.50;;;15.00;100.00
29839;BME280;18669;53.356;-1.464;2022-07-04T04:36:43;100870.19;;;14.99;100.00
29839;BME280;18669;53.356;-1.464;2022-07-04T04:39:09;100863.84;;;15.03;100.00
29839;BME280;18669;53.356;-1.464;2022-07-04T04:41:36;100864.69;;;15.04;100.00
29839;BME280;18669;53.356;-1.464;2022-07-04T04:44:06;100852.81;;;15.16;100.00
29839;BME280;18669;53.356;-1.464;2022-07-04T04:46:35;100857.53;;;15.07;100.00
29839;BME280;18669;53.356;-1.464;2022-07-04T04:49:11;100853.50;;;15.21;100.00
29839;BME280;18669;53.356;-1.464;2022-07-04T04:51:38;100852.81;;;15.16;100.00
29839;BME280;18669;53.356;-1.464;2022-07-04T04:54:07;100818.53;;;15.11;100.00
29839;BME280;18669;53.356;-1.464;2022-07-04T04:56:33;100829.63;;;15.21;100.00
29839;BME280;18669;53.356;-1.464;2022-07-04T04:59:00;100840.91;;;15.28;100.00
29839;BME280;18669;53.356;-1.464;2022-07-04T05:01:27;100854.78;;;15.34;100.00
29839;BME280;18669;53.356;-1.464;2022-07-04T05:03:54;100848.63;;;15.34;100.00
29839;BME280;18669;53.356;-1.464;2022-07-04T05:06:20;100864.06;;;15.46;100.00
29839;BME280;18669;53.356;-1.464;2022-07-04T05:08:49;100868.34;;;15.50;100.00
29839;BME280;18669;53.356;-1.464;2022-07-04T05:11:16;100878.91;;;15.52;100.00
29839;BME280;18669;53.356;-1.464;2022-07-04T05:13:42;100876.91;;;15.57;100.00
29839;BME280;18669;53.356;-1.464;2022-07-04T05:16:09;100873.00;;;15.68;100.00
29839;BME280;18669;53.356;-1.464;2022-07-04T05:18:39;100870.81;;;15.79;100.00
29839;BME280;18669;53.356;-1.464;2022-07-04T05:21:12;100874.69;;;15.94;100.00
29839;BME280;18669;53.356;-1.464;2022-07-04T05:23:46;100862.78;;;15.80;100.00
29839;BME280;18669;53.356;-1.464;2022-07-04T05:26:20;100864.75;;;15.99;100.00
29839;BME280;18669;53.356;-1.464;2022-07-04T05:28:55;100859.94;;;16.09;100.00
29839;BME280;18669;53.356;-1.464;2022-07-04T05:31:28;100855.44;;;16.11;100.00
29839;BME280;18669;53.356;-1.464;2022-07-04T05:33:58;100853.25;;;15.99;100.00
29839;BME280;18669;53.356;-1.464;2022-07-04T05:36:25;100857.34;;;16.07;100.00
29839;BME280;18669;53.356;-1.464;2022-07-04T05:38:52;100844.75;;;16.13;100.00
29839;BME280;18669;53.356;-1.464;2022-07-04T05:41:21;100847.34;;;16.14;100.00
29839;BME280;18669;53.356;-1.464;2022-07-04T05:43:48;100842.53;;;16.24;100.00
29839;BME280;18669;53.356;-1.464;2022-07-04T05:46:14;100839.94;;;16.22;100.00
29839;BME280;18669;53.356;-1.464;2022-07-04T05:52:40;100829.84;;;16.31;100.00
29839;BME280;18669;53.356;-1.464;2022-07-04T05:55:07;100836.63;;;16.17;100.00
29839;BME280;18669;53.356;-1.464;2022-07-04T05:57:39;100844.34;;;16.23;100.00
29839;BME280;18669;53.356;-1.464;2022-07-04T06:00:10;100850.00;;;16.14;100.00
29839;BME280;18669;53.356;-1.464;2022-07-04T06:02:40;100861.78;;;16.07;100.00
29839;BME280;18669;53.356;-1.464;2022-07-04T06:05:19;100856.28;;;16.11;100.00
29839;BME280;18669;53.356;-1.464;2022-07-04T06:07:45;100850.31;;;16.06;100.00
29839;BME280;18669;53.356;-1.464;2022-07-04T06:11:16;100852.09;;;16.28;100.00
29839;BME280;18669;53.356;-1.464;2022-07-04T06:14:27;100865.28;;;16.30;100.00
29839;BME280;18669;53.356;-1.464;2022-07-04T06:17:36;100861.72;;;16.31;100.00
29839;BME280;18669;53.356;-1.464;2022-07-04T06:20:04;100866.63;;;16.19;100.00
29839;BME280;18669;53.356;-1.464;2022-07-04T06:22:49;100866.78;;;16.37;100.00
29839;BME280;18669;53.356;-1.464;2022-07-04T06:26:03;100857.03;;;16.37;100.00
29839;BME280;18669;53.356;-1.464;2022-07-04T06:28:54;100850.94;;;16.13;100.00
29839;BME280;18669;53.356;-1.464;2022-07-04T06:31:25;100852.59;;;16.16;100.00
29839;BME280;18669;53.356;-1.464;2022-07-04T06:33:52;100852.84;;;16.09;100.00
29839;BME280;18669;53.356;-1.464;2022-07-04T06:36:37;100848.03;;;16.19;100.00
29839;BME280;18669;53.356;-1.464;2022-07-04T06:39:04;100844.72;;;16.35;100.00
29839;BME280;18669;53.356;-1.464;2022-07-04T06:41:38;100851.72;;;16.37;100.00
29839;BME280;18669;53.356;-1.464;2022-07-04T06:44:16;100844.78;;;16.55;100.00
29839;BME280;18669;53.356;-1.464;2022-07-04T06:46:49;100841.00;;;16.61;100.00
29839;BME280;18669;53.356;-1.464;2022-07-04T06:49:26;100835.38;;;16.47;100.00
29839;BME280;18669;53.356;-1.464;2022-07-04T06:52:02;100842.94;;;16.78;100.00
29839;BME280;18669;53.356;-1.464;2022-07-04T06:54:29;100835.13;;;16.53;100.00
29839;BME280;18669;53.356;-1.464;2022-07-04T06:56:59;100829.44;;;16.62;100.00
29839;BME280;18669;53.356;-1.464;2022-07-04T06:59:28;100847.44;;;16.76;100.00
29839;BME280;18669;53.356;-1.464;2022-07-04T07:01:57;100815.56;;;16.76;100.00
29839;BME280;18669;53.356;-1.464;2022-07-04T07:04:27;100845.06;;;16.91;100.00
29839;BME280;18669;53.356;-1.464;2022-07-04T07:07:13;100848.38;;;16.96;100.00
29839;BME280;18669;53.356;-1.464;2022-07-04T07:09:49;100862.47;;;17.19;100.00
29839;BME280;18669;53.356;-1.464;2022-07-04T07:12:33;100869.97;;;16.88;100.00
29839;BME280;18669;53.356;-1.464;2022-07-04T07:22:10;100887.25;;;17.19;96.87
29839;BME280;18669;53.356;-1.464;2022-07-04T07:24:57;100885.03;;;17.10;93.53
29839;BME280;18669;53.356;-1.464;2022-07-04T07:27:53;100888.16;;;17.39;91.79
29839;BME280;18669;53.356;-1.464;2022-07-04T07:34:11;100894.25;;;17.22;89.67
29839;BME280;18669;53.356;-1.464;2022-07-04T07:51:57;100908.69;;;17.35;88.82
29839;BME280;18669;53.356;-1.464;2022-07-04T07:54:27;100909.72;;;17.33;91.46
29839;BME280;18669;53.356;-1.464;2022-07-04T07:57:03;100896.28;;;17.36;89.16
29839;BME280;18669;53.356;-1.464;2022-07-04T07:59:33;100879.66;;;17.30;88.95
29839;BME280;18669;53.356;-1.464;2022-07-04T08:02:08;100906.56;;;17.43;89.62
29839;BME280;18669;53.356;-1.464;2022-07-04T08:04:40;100920.25;;;17.34;90.78
29839;BME280;18669;53.356;-1.464;2022-07-04T08:07:11;100923.66;;;17.38;90.04
29839;BME280;18669;53.356;-1.464;2022-07-04T08:10:13;100926.44;;;17.55;93.96
29839;BME280;18669;53.356;-1.464;2022-07-04T08:12:47;100929.53;;;17.46;91.14
29839;BME280;18669;53.356;-1.464;2022-07-04T08:15:18;100923.63;;;17.58;87.12
29839;BME280;18669;53.356;-1.464;2022-07-04T08:17:45;100921.56;;;17.65;86.58
29839;BME280;18669;53.356;-1.464;2022-07-04T08:20:16;100916.38;;;17.62;87.06
29839;BME280;18669;53.356;-1.464;2022-07-04T08:27:05;100906.34;;;18.44;81.59
29839;BME280;18669;53.356;-1.464;2022-07-04T08:29:31;100903.78;;;18.97;80.38
29839;BME280;18669;53.356;-1.464;2022-07-04T08:36:31;100893.66;;;20.35;63.37
29839;BME280;18669;53.356;-1.464;2022-07-04T08:39:28;100907.81;;;20.05;64.76
29839;BME280;18669;53.356;-1.464;2022-07-04T08:42:37;100902.88;;;19.47;66.61
29839;BME280;18669;53.356;-1.464;2022-07-04T08:45:47;100935.06;;;19.11;65.67
29839;BME280;18669;53.356;-1.464;2022-07-04T08:55:56;100927.53;;;18.47;71.39
29839;BME280;18669;53.356;-1.464;2022-07-04T09:02:52;100910.16;;;18.92;70.08
29839;BME280;18669;53.356;-1.464;2022-07-04T09:05:29;100917.31;;;19.10;68.69
29839;BME280;18669;53.356;-1.464;2022-07-04T09:08:07;100916.59;;;18.88;70.34
29839;BME280;18669;53.356;-1.464;2022-07-04T09:10:53;100926.00;;;18.78;72.09
29839;BME280;18669;53.356;-1.464;2022-07-04T09:16:35;100924.84;;;18.47;72.13
29839;BME280;18669;53.356;-1.464;2022-07-04T09:19:01;100923.75;;;18.33;74.61
29839;BME280;18669;53.356;-1.464;2022-07-04T09:22:09;100918.72;;;18.99;69.44
29839;BME280;18669;53.356;-1.464;2022-07-04T09:40:07;100931.88;;;21.14;51.61
29839;BME280;18669;53.356;-1.464;2022-07-04T09:43:21;100915.97;;;20.34;53.02
29839;BME280;18669;53.356;-1.464;2022-07-04T09:57:46;100925.72;;;20.19;52.32
29839;BME280;18669;53.356;-1.464;2022-07-04T10:05:03;100932.13;;;20.00;54.76
29839;BME280;18669;53.356;-1.464;2022-07-04T10:07:57;100932.28;;;19.63;56.95
29839;BME280;18669;53.356;-1.464;2022-07-04T10:14:26;100924.88;;;19.68;57.27
29839;BME280;18669;53.356;-1.464;2022-07-04T10:18:22;100939.81;;;20.22;56.33
29839;BME280;18669;53.356;-1.464;2022-07-04T10:21:37;100939.56;;;20.90;54.67
29839;BME280;18669;53.356;-1.464;2022-07-04T10:32:32;100958.75;;;21.41;50.78
29839;BME280;18669;53.356;-1.464;2022-07-04T10:41:56;100946.50;;;20.78;52.29
29839;BME280;18669;53.356;-1.464;2022-07-04T10:44:24;100945.66;;;20.29;53.55
29839;BME280;18669;53.356;-1.464;2022-07-04T10:46:52;100947.28;;;20.16;54.70
29839;BME280;18669;53.356;-1.464;2022-07-04T10:49:25;100960.22;;;20.07;57.15
29839;BME280;18669;53.356;-1.464;2022-07-04T10:52:11;100954.09;;;20.05;55.84
29839;BME280;18669;53.356;-1.464;2022-07-04T10:54:39;100947.16;;;19.85;58.15
29839;BME280;18669;53.356;-1.464;2022-07-04T10:57:20;100928.53;;;19.83;57.60
29839;BME280;18669;53.356;-1.464;2022-07-04T11:02:25;100938.00;;;20.85;55.63
29839;BME280;18669;53.356;-1.464;2022-07-04T11:10:24;100937.72;;;20.74;51.72
29839;BME280;18669;53.356;-1.464;2022-07-04T11:13:27;100936.06;;;21.63;50.59
29839;BME280;18669;53.356;-1.464;2022-07-04T11:16:47;100935.28;;;22.59;46.70
29839;BME280;18669;53.356;-1.464;2022-07-04T11:19:59;100917.00;;;22.24;46.87
29839;BME280;18669;53.356;-1.464;2022-07-04T11:26:04;100957.53;;;22.74;46.51
29839;BME280;18669;53.356;-1.464;2022-07-04T11:29:19;100941.63;;;24.02;43.54
29839;BME280;18669;53.356;-1.464;2022-07-04T11:35:20;100937.50;;;26.76;39.16
29839;BME280;18669;53.356;-1.464;2022-07-04T11:37:56;100949.19;;;26.21;39.03
29839;BME280;18669;53.356;-1.464;2022-07-04T11:40:46;100943.72;;;24.47;40.40
29839;BME280;18669;53.356;-1.464;2022-07-04T11:43:41;100954.84;;;23.15;42.87
29839;BME280;18669;53.356;-1.464;2022-07-04T11:46:29;100966.56;;;21.89;45.70
29839;BME280;18669;53.356;-1.464;2022-07-04T11:49:12;100968.22;;;21.33;47.83
29839;BME280;18669;53.356;-1.464;2022-07-04T11:51:49;100973.19;;;20.94;48.83
29839;BME280;18669;53.356;-1.464;2022-07-04T11:54:26;100972.00;;;20.67;50.71
29839;BME280;18669;53.356;-1.464;2022-07-04T12:00:54;100995.47;;;20.46;53.22
29839;BME280;18669;53.356;-1.464;2022-07-04T12:03:54;100991.56;;;20.04;54.75
29839;BME280;18669;53.356;-1.464;2022-07-04T12:06:25;100983.03;;;19.97;56.80
29839;BME280;18669;53.356;-1.464;2022-07-04T12:13:36;100966.47;;;21.31;53.48
29839;BME280;18669;53.356;-1.464;2022-07-04T12:16:11;100975.91;;;21.97;52.08
29839;BME280;18669;53.356;-1.464;2022-07-04T12:18:40;100982.41;;;21.93;50.13
29839;BME280;18669;53.356;-1.464;2022-07-04T12:21:17;100963.34;;;21.39;51.28
29839;BME280;18669;53.356;-1.464;2022-07-04T12:23:54;100988.66;;;21.03;51.20
29839;BME280;18669;53.356;-1.464;2022-07-04T12:26:23;100989.69;;;20.54;53.43
29839;BME280;18669;53.356;-1.464;2022-07-04T12:33:18;100977.66;;;20.93;53.40
29839;BME280;18669;53.356;-1.464;2022-07-04T12:36:24;100971.50;;;21.07;53.73
29839;BME280;18669;53.356;-1.464;2022-07-04T12:38:54;100983.84;;;21.24;53.23
29839;BME280;18669;53.356;-1.464;2022-07-04T12:41:32;100992.34;;;20.86;53.22
29839;BME280;18669;53.356;-1.464;2022-07-04T12:44:19;100993.66;;;20.47;54.03
29839;BME280;18669;53.356;-1.464;2022-07-04T12:47:51;101013.19;;;19.81;57.66
29839;BME280;18669;53.356;-1.464;2022-07-04T12:50:48;101002.88;;;19.58;60.18
29839;BME280;18669;53.356;-1.464;2022-07-04T12:53:35;101002.56;;;19.64;59.67
29839;BME280;18669;53.356;-1.464;2022-07-04T12:56:07;100972.47;;;20.27;56.81
29839;BME280;18669;53.356;-1.464;2022-07-04T12:58:35;101000.53;;;21.58;52.12
29839;BME280;18669;53.356;-1.464;2022-07-04T13:01:05;100995.63;;;21.67;52.15
29839;BME280;18669;53.356;-1.464;2022-07-04T13:03:41;100992.19;;;21.79;52.58
29839;BME280;18669;53.356;-1.464;2022-07-04T13:13:19;100989.16;;;21.55;49.74
29839;BME280;18669;53.356;-1.464;2022-07-04T13:15:45;100990.25;;;21.52;49.85
29839;BME280;18669;53.356;-1.464;2022-07-04T13:18:18;100987.88;;;21.31;49.83
29839;BME280;18669;53.356;-1.464;2022-07-04T13:20:47;100981.41;;;21.36;49.17
29839;BME280;18669;53.356;-1.464;2022-07-04T13:23:14;100999.34;;;21.64;49.10
29839;BME280;18669;53.356;-1.464;2022-07-04T13:25:41;100988.94;;;21.74;48.63
29839;BME280;18669;53.356;-1.464;2022-07-04T13:28:22;101000.03;;;21.68;48.92
29839;BME280;18669;53.356;-1.464;2022-07-04T13:30:49;100990.94;;;21.85;48.74
29839;BME280;18669;53.356;-1.464;2022-07-04T13:33:22;100988.66;;;21.93;48.16
29839;BME280;18669;53.356;-1.464;2022-07-04T13:35:49;100983.88;;;22.26;47.90
29839;BME280;18669;53.356;-1.464;2022-07-04T13:38:29;100989.44;;;22.52;47.15
29839;BME280;18669;53.356;-1.464;2022-07-04T13:41:02;100989.25;;;22.55;45.50
29839;BME280;18669;53.356;-1.464;2022-07-04T13:43:32;100994.09;;;22.06;46.84
29839;BME280;18669;53.356;-1.464;2022-07-04T13:45:59;100992.66;;;22.00;46.81
29839;BME280;18669;53.356;-1.464;2022-07-04T13:48:42;100984.13;;;24.58;43.43
29839;BME280;18669;53.356;-1.464;2022-07-04T13:51:08;100991.09;;;25.80;39.98
29839;BME280;18669;53.356;-1.464;2022-07-04T13:53:34;100987.13;;;26.96;37.09
29839;BME280;18669;53.356;-1.464;2022-07-04T13:56:09;100960.75;;;26.56;37.86
29839;BME280;18669;53.356;-1.464;2022-07-04T14:02:36;100997.00;;;26.19;36.90
29839;BME280;18669;53.356;-1.464;2022-07-04T14:05:49;100996.47;;;24.61;39.63
29839;BME280;18669;53.356;-1.464;2022-07-04T14:13:41;101006.97;;;23.38;43.14
29839;BME280;18669;53.356;-1.464;2022-07-04T14:20:59;101008.91;;;22.12;45.31
29839;BME280;18669;53.356;-1.464;2022-07-04T14:23:37;101025.19;;;21.94;45.84
29839;BME280;18669;53.356;-1.464;2022-07-04T14:26:13;101013.34;;;24.76;41.83
29839;BME280;18669;53.356;-1.464;2022-07-04T14:29:10;101002.16;;;26.22;37.04
29839;BME280;18669;53.356;-1.464;2022-07-04T14:40:13;101020.41;;;23.90;39.22
29839;BME280;18669;53.356;-1.464;2022-07-04T14:43:01;101017.19;;;23.46;40.07
29839;BME280;18669;53.356;-1.464;2022-07-04T14:45:53;101019.75;;;22.94;41.00
29839;BME280;18669;53.356;-1.464;2022-07-04T14:49:05;101020.25;;;22.30;42.71
29839;BME280;18669;53.356;-1.464;2022-07-04T14:51:32;101016.19;;;22.66;43.70
29839;BME280;18669;53.356;-1.464;2022-07-04T14:54:14;101032.84;;;25.15;37.35
29839;BME280;18669;53.356;-1.464;2022-07-04T14:56:52;101029.50;;;25.36;36.18
29839;BME280;18669;53.356;-1.464;2022-07-04T14:59:36;101020.75;;;25.21;37.85
29839;BME280;18669;53.356;-1.464;2022-07-04T15:02:35;101015.09;;;28.62;32.86
29839;BME280;18669;53.356;-1.464;2022-07-04T15:05:15;101010.13;;;29.45;30.29
29839;BME280;18669;53.356;-1.464;2022-07-04T15:08:07;101016.25;;;27.14;33.33
29839;BME280;18669;53.356;-1.464;2022-07-04T15:10:43;101017.03;;;26.60;33.50
29839;BME280;18669;53.356;-1.464;2022-07-04T15:13:19;101024.81;;;26.08;34.58
29839;BME280;18669;53.356;-1.464;2022-07-04T15:16:14;101010.25;;;25.76;35.43
29839;BME280;18669;53.356;-1.464;2022-07-04T15:19:53;101000.69;;;28.01;32.28
29839;BME280;18669;53.356;-1.464;2022-07-04T15:22:37;100998.63;;;27.83;32.82
29839;BME280;18669;53.356;-1.464;2022-07-04T15:25:30;101009.44;;;26.54;34.40
29839;BME280;18669;53.356;-1.464;2022-07-04T15:27:56;100999.84;;;25.25;34.88
29839;BME280;18669;53.356;-1.464;2022-07-04T15:30:50;101019.28;;;24.31;36.92
29839;BME280;18669;53.356;-1.464;2022-07-04T15:33:28;101019.03;;;23.58;38.45
29839;BME280;18669;53.356;-1.464;2022-07-04T15:35:57;101014.16;;;23.50;38.51
29839;BME280;18669;53.356;-1.464;2022-07-04T15:38:30;101024.94;;;23.10;39.81
29839;BME280;18669;53.356;-1.464;2022-07-04T15:41:06;101026.66;;;22.56;40.83
29839;BME280;18669;53.356;-1.464;2022-07-04T15:44:05;101023.03;;;22.85;39.82
29839;BME280;18669;53.356;-1.464;2022-07-04T15:46:48;101026.69;;;22.42;40.54
29839;BME280;18669;53.356;-1.464;2022-07-04T15:49:53;101025.28;;;22.07;41.47
29839;BME280;18669;53.356;-1.464;2022-07-04T15:52:19;101014.75;;;21.75;42.13
29839;BME280;18669;53.356;-1.464;2022-07-04T15:54:58;101025.56;;;21.88;43.02
29839;BME280;18669;53.356;-1.464;2022-07-04T15:57:25;101027.84;;;21.80;43.78
29839;BME280;18669;53.356;-1.464;2022-07-04T15:59:57;101030.25;;;21.84;42.63
29839;BME280;18669;53.356;-1.464;2022-07-04T16:02:27;101003.19;;;21.89;43.57
29839;BME280;18669;53.356;-1.464;2022-07-04T16:05:02;101038.38;;;21.83;43.33
29839;BME280;18669;53.356;-1.464;2022-07-04T16:07:54;101040.09;;;21.84;43.13
29839;BME280;18669;53.356;-1.464;2022-07-04T16:10:28;101024.97;;;21.83;42.82
29839;BME280;18669;53.356;-1.464;2022-07-04T16:12:58;101025.69;;;21.86;43.15
29839;BME280;18669;53.356;-1.464;2022-07-04T16:18:55;101048.59;;;21.90;42.78
29839;BME280;18669;53.356;-1.464;2022-07-04T16:21:28;101048.31;;;21.81;42.60
29839;BME280;18669;53.356;-1.464;2022-07-04T16:24:03;101041.66;;;22.02;42.90
29839;BME280;18669;53.356;-1.464;2022-07-04T16:26:35;101036.66;;;21.96;43.22
29839;BME280;18669;53.356;-1.464;2022-07-04T16:29:05;101045.28;;;21.56;43.84
29839;BME280;18669;53.356;-1.464;2022-07-04T16:31:42;101047.63;;;21.63;44.54
29839;BME280;18669;53.356;-1.464;2022-07-04T16:37:55;101030.81;;;21.30;44.92
29839;BME280;18669;53.356;-1.464;2022-07-04T16:40:31;101033.53;;;21.14;45.89
29839;BME280;18669;53.356;-1.464;2022-07-04T16:43:03;101019.84;;;20.88;44.83
29839;BME280;18669;53.356;-1.464;2022-07-04T16:45:50;101034.03;;;21.21;45.23
29839;BME280;18669;53.356;-1.464;2022-07-04T16:48:20;101030.50;;;21.04;45.49
29839;BME280;18669;53.356;-1.464;2022-07-04T16:50:59;101035.97;;;21.02;45.76
29839;BME280;18669;53.356;-1.464;2022-07-04T16:53:28;101038.94;;;20.98;45.96